sensor_id;sensor_type;location;lat;lon;timestamp;P1;durP1;ratioP1;P2;durP2;ratioP2
50543;SDS011;41176;44.032;20.900;2022-12-07T00:01:36;8.65;;;4.22;;
50543;SDS011;41176;44.032;20.900;2022-12-07T00:04:04;8.05;;;4.93;;
50543;SDS011;41176;44.032;20.900;2022-12-07T00:06:32;13.52;;;5.40;;
50543;SDS011;41176;44.032;20.900;2022-12-07T00:09:05;10.75;;;5.25;;
50543;SDS011;41176;44.032;20.900;2022-12-07T00:11:33;12.82;;;7.05;;
50543;SDS011;41176;44.032;20.900;2022-12-07T00:14:00;9.32;;;5.25;;
50543;SDS011;41176;44.032;20.900;2022-12-07T00:16:28;9.05;;;5.05;;
50543;SDS011;41176;44.032;20.900;2022-12-07T00:18:56;7.65;;;5.35;;
50543;SDS011;41176;44.032;20.900;2022-12-07T00:21:23;8.10;;;4.35;;
50543;SDS011;41176;44.032;20.900;2022-12-07T00:23:51;7.20;;;3.97;;
50543;SDS011;41176;44.032;20.900;2022-12-07T00:26:22;8.15;;;5.05;;
50543;SDS011;41176;44.032;20.900;2022-12-07T00:29:00;9.88;;;4.70;;
50543;SDS011;41176;44.032;20.900;2022-12-07T00:31:29;6.38;;;4.85;;
50543;SDS011;41176;44.032;20.900;2022-12-07T00:34:03;13.38;;;5.65;;
50543;SDS011;41176;44.032;20.900;2022-12-07T00:36:30;13.15;;;5.22;;
50543;SDS011;41176;44.032;20.900;2022-12-07T00:38:59;4.90;;;2.97;;
50543;SDS011;41176;44.032;20.900;2022-12-07T00:41:28;8.40;;;3.28;;
50543;SDS011;41176;44.032;20.900;2022-12-07T00:43:55;2.95;;;2.60;;
50543;SDS011;41176;44.032;20.900;2022-12-07T00:46:21;6.85;;;3.78;;
50543;SDS011;41176;44.032;20.900;2022-12-07T00:48:48;6.20;;;2.88;;
50543;SDS011;41176;44.032;20.900;2022-12-07T00:51:16;3.50;;;2.47;;
50543;SDS011;41176;44.032;20.900;2022-12-07T00:53:43;7.50;;;3.80;;
50543;SDS011;41176;44.032;20.900;2022-12-07T00:56:12;7.25;;;3.30;;
50543;SDS011;41176;44.032;20.900;2022-12-07T00:58:42;9.68;;;4.55;;
50543;SDS011;41176;44.032;20.900;2022-12-07T01:01:08;8.95;;;4.40;;
50543;SDS011;41176;44.032;20.900;2022-12-07T01:03:36;7.00;;;4.05;;
50543;SDS011;41176;44.032;20.900;2022-12-07T01:06:03;7.80;;;4.82;;
50543;SDS011;41176;44.032;20.900;2022-12-07T01:08:29;6.13;;;3.17;;
50543;SDS011;41176;44.032;20.900;2022-12-07T01:11:02;5.43;;;2.33;;
50543;SDS011;41176;44.032;20.900;2022-12-07T01:13:30;8.63;;;3.13;;
50543;SDS011;41176;44.032;20.900;2022-12-07T01:15:57;6.00;;;3.25;;
50543;SDS011;41176;44.032;20.900;2022-12-07T01:18:28;10.50;;;3.30;;
50543;SDS011;41176;44.032;20.900;2022-12-07T01:21:02;8.68;;;3.58;;
50543;SDS011;41176;44.032;20.900;2022-12-07T01:23:30;5.40;;;3.50;;
50543;SDS011;41176;44.032;20.900;2022-12-07T01:25:58;8.43;;;4.35;;
50543;SDS011;41176;44.032;20.900;2022-12-07T01:28:26;7.43;;;3.25;;
50543;SDS011;41176;44.032;20.900;2022-12-07T01:30:56;9.50;;;4.68;;
50543;SDS011;41176;44.032;20.900;2022-12-07T01:33:23;8.15;;;3.70;;
50543;SDS011;41176;44.032;20.900;2022-12-07T01:35:49;5.95;;;2.95;;
50543;SDS011;41176;44.032;20.900;2022-12-07T01:38:15;5.05;;;3.90;;
50543;SDS011;41176;44.032;20.900;2022-12-07T01:40:41;6.25;;;3.30;;
50543;SDS011;41176;44.032;20.900;2022-12-07T01:43:14;12.50;;;4.07;;
50543;SDS011;41176;44.032;20.900;2022-12-07T01:45:43;10.57;;;4.07;;
50543;SDS011;41176;44.032;20.900;2022-12-07T01:48:09;8.48;;;5.50;;
50543;SDS011;41176;44.032;20.900;2022-12-07T01:50:38;7.95;;;5.10;;
50543;SDS011;41176;44.032;20.900;2022-12-07T01:53:06;7.10;;;3.42;;
50543;SDS011;41176;44.032;20.900;2022-12-07T01:55:34;7.47;;;2.55;;
50543;SDS011;41176;44.032;20.900;2022-12-07T01:58:02;6.05;;;4.18;;
50543;SDS011;41176;44.032;20.900;2022-12-07T02:00:28;6.60;;;3.25;;
50543;SDS011;41176;44.032;20.900;2022-12-07T02:05:37;7.28;;;3.58;;
50543;SDS011;41176;44.032;20.900;2022-12-07T02:08:05;5.40;;;3.00;;
50543;SDS011;41176;44.032;20.900;2022-12-07T02:10:32;8.77;;;3.53;;
50543;SDS011;41176;44.032;20.900;2022-12-07T02:13:01;8.82;;;3.13;;
50543;SDS011;41176;44.032;20.900;2022-12-07T02:18:38;10.48;;;4.03;;
50543;SDS011;41176;44.032;20.900;2022-12-07T02:23:56;5.55;;;3.08;;
50543;SDS011;41176;44.032;20.900;2022-12-07T02:27:02;5.03;;;2.72;;
50543;SDS011;41176;44.032;20.900;2022-12-07T02:32:11;3.50;;;2.33;;
50543;SDS011;41176;44.032;20.900;2022-12-07T02:43:34;3.60;;;2.60;;
50543;SDS011;41176;44.032;20.900;2022-12-07T02:46:14;4.93;;;1.88;;
50543;SDS011;41176;44.032;20.900;2022-12-07T02:48:45;3.05;;;0.90;;
50543;SDS011;41176;44.032;20.900;2022-12-07T02:51:17;3.33;;;2.08;;
50543;SDS011;41176;44.032;20.900;2022-12-07T02:53:43;1.65;;;0.98;;
50543;SDS011;41176;44.032;20.900;2022-12-07T02:59:29;4.63;;;1.75;;
50543;SDS011;41176;44.032;20.900;2022-12-07T03:02:25;2.78;;;1.83;;
50543;SDS011;41176;44.032;20.900;2022-12-07T03:13:41;8.23;;;4.07;;
50543;SDS011;41176;44.032;20.900;2022-12-07T03:16:35;1.23;;;0.95;;
50543;SDS011;41176;44.032;20.900;2022-12-07T03:19:10;6.25;;;2.13;;
50543;SDS011;41176;44.032;20.900;2022-12-07T03:21:41;3.00;;;2.10;;
50543;SDS011;41176;44.032;20.900;2022-12-07T03:24:12;2.80;;;1.92;;
50543;SDS011;41176;44.032;20.900;2022-12-07T03:27:03;3.47;;;1.65;;
50543;SDS011;41176;44.032;20.900;2022-12-07T03:29:38;2.75;;;1.23;;
50543;SDS011;41176;44.032;20.900;2022-12-07T03:34:45;5.32;;;1.85;;
50543;SDS011;41176;44.032;20.900;2022-12-07T03:37:21;1.73;;;1.63;;
50543;SDS011;41176;44.032;20.900;2022-12-07T03:40:08;1.92;;;1.45;;
50543;SDS011;41176;44.032;20.900;2022-12-07T03:42:44;2.30;;;1.08;;
50543;SDS011;41176;44.032;20.900;2022-12-07T03:45:10;1.17;;;0.75;;
50543;SDS011;41176;44.032;20.900;2022-12-07T03:47:41;4.45;;;2.05;;
50543;SDS011;41176;44.032;20.900;2022-12-07T03:50:19;2.63;;;1.92;;
50543;SDS011;41176;44.032;20.900;2022-12-07T03:52:58;4.80;;;2.28;;
50543;SDS011;41176;44.032;20.900;2022-12-07T03:55:30;2.72;;;1.55;;
50543;SDS011;41176;44.032;20.900;2022-12-07T03:58:04;3.58;;;2.65;;
50543;SDS011;41176;44.032;20.900;2022-12-07T04:00:34;3.92;;;2.20;;
50543;SDS011;41176;44.032;20.900;2022-12-07T04:03:00;3.33;;;1.88;;
50543;SDS011;41176;44.032;20.900;2022-12-07T04:05:26;2.20;;;1.27;;
50543;SDS011;41176;44.032;20.900;2022-12-07T04:07:54;5.60;;;2.30;;
50543;SDS011;41176;44.032;20.900;2022-12-07T04:10:19;4.75;;;2.42;;
50543;SDS011;41176;44.032;20.900;2022-12-07T04:12:45;8.98;;;3.83;;
50543;SDS011;41176;44.032;20.900;2022-12-07T04:15:11;1.48;;;1.27;;
50543;SDS011;41176;44.032;20.900;2022-12-07T04:17:37;5.22;;;2.05;;
50543;SDS011;41176;44.032;20.900;2022-12-07T04:20:04;4.55;;;1.80;;
50543;SDS011;41176;44.032;20.900;2022-12-07T04:22:31;1.83;;;1.65;;
50543;SDS011;41176;44.032;20.900;2022-12-07T04:24:56;3.28;;;1.80;;
50543;SDS011;41176;44.032;20.900;2022-12-07T04:27:22;3.35;;;1.85;;
50543;SDS011;41176;44.032;20.900;2022-12-07T04:29:48;4.32;;;1.45;;
50543;SDS011;41176;44.032;20.900;2022-12-07T04:32:14;3.88;;;1.67;;
50543;SDS011;41176;44.032;20.900;2022-12-07T04:34:40;4.75;;;2.20;;
50543;SDS011;41176;44.032;20.900;2022-12-07T04:37:06;4.78;;;2.08;;
50543;SDS011;41176;44.032;20.900;2022-12-07T04:39:32;4.53;;;2.15;;
50543;SDS011;41176;44.032;20.900;2022-12-07T04:41:59;2.60;;;1.88;;
50543;SDS011;41176;44.032;20.900;2022-12-07T04:44:26;1.75;;;1.33;;
50543;SDS011;41176;44.032;20.900;2022-12-07T04:46:53;6.63;;;2.03;;
50543;SDS011;41176;44.032;20.900;2022-12-07T04:49:20;4.28;;;2.47;;
50543;SDS011;41176;44.032;20.900;2022-12-07T04:51:46;5.20;;;3.25;;
50543;SDS011;41176;44.032;20.900;2022-12-07T04:54:13;7.97;;;2.90;;
50543;SDS011;41176;44.032;20.900;2022-12-07T04:56:40;2.97;;;2.22;;
50543;SDS011;41176;44.032;20.900;2022-12-07T04:59:06;9.75;;;2.63;;
50543;SDS011;41176;44.032;20.900;2022-12-07T05:01:33;5.35;;;2.20;;
50543;SDS011;41176;44.032;20.900;2022-12-07T05:03:59;4.80;;;2.20;;
50543;SDS011;41176;44.032;20.900;2022-12-07T05:06:25;2.75;;;2.30;;
50543;SDS011;41176;44.032;20.900;2022-12-07T05:08:52;2.53;;;1.98;;
50543;SDS011;41176;44.032;20.900;2022-12-07T05:11:18;5.70;;;2.30;;
50543;SDS011;41176;44.032;20.900;2022-12-07T05:14:03;5.40;;;2.85;;
50543;SDS011;41176;44.032;20.900;2022-12-07T05:16:31;3.33;;;2.50;;
50543;SDS011;41176;44.032;20.900;2022-12-07T05:18:57;3.40;;;1.55;;
50543;SDS011;41176;44.032;20.900;2022-12-07T05:21:23;4.88;;;3.28;;
50543;SDS011;41176;44.032;20.900;2022-12-07T05:23:49;8.88;;;3.30;;
50543;SDS011;41176;44.032;20.900;2022-12-07T05:26:15;6.32;;;2.83;;
50543;SDS011;41176;44.032;20.900;2022-12-07T05:28:42;4.35;;;2.40;;
50543;SDS011;41176;44.032;20.900;2022-12-07T05:31:08;2.78;;;2.35;;
50543;SDS011;41176;44.032;20.900;2022-12-07T05:33:34;6.18;;;3.67;;
50543;SDS011;41176;44.032;20.900;2022-12-07T05:36:00;5.65;;;2.65;;
50543;SDS011;41176;44.032;20.900;2022-12-07T05:38:31;4.00;;;2.33;;
50543;SDS011;41176;44.032;20.900;2022-12-07T05:41:03;7.65;;;2.97;;
50543;SDS011;41176;44.032;20.900;2022-12-07T05:43:30;3.97;;;2.00;;
50543;SDS011;41176;44.032;20.900;2022-12-07T05:45:57;4.32;;;2.35;;
50543;SDS011;41176;44.032;20.900;2022-12-07T05:48:23;5.25;;;3.45;;
50543;SDS011;41176;44.032;20.900;2022-12-07T05:50:49;4.03;;;2.45;;
50543;SDS011;41176;44.032;20.900;2022-12-07T05:53:16;4.30;;;2.20;;
50543;SDS011;41176;44.032;20.900;2022-12-07T05:55:43;6.22;;;3.17;;
50543;SDS011;41176;44.032;20.900;2022-12-07T05:58:09;4.38;;;1.70;;
50543;SDS011;41176;44.032;20.900;2022-12-07T06:00:57;3.53;;;1.83;;
50543;SDS011;41176;44.032;20.900;2022-12-07T06:03:23;5.93;;;2.25;;
50543;SDS011;41176;44.032;20.900;2022-12-07T06:05:48;2.58;;;2.08;;
50543;SDS011;41176;44.032;20.900;2022-12-07T06:08:14;4.22;;;2.13;;
50543;SDS011;41176;44.032;20.900;2022-12-07T06:10:40;2.35;;;1.70;;
50543;SDS011;41176;44.032;20.900;2022-12-07T06:13:07;6.32;;;2.40;;
50543;SDS011;41176;44.032;20.900;2022-12-07T06:15:36;3.30;;;1.50;;
50543;SDS011;41176;44.032;20.900;2022-12-07T06:18:02;4.38;;;2.33;;
50543;SDS011;41176;44.032;20.900;2022-12-07T06:20:28;2.47;;;1.80;;
50543;SDS011;41176;44.032;20.900;2022-12-07T06:22:54;6.75;;;2.95;;
50543;SDS011;41176;44.032;20.900;2022-12-07T06:25:20;4.22;;;2.25;;
50543;SDS011;41176;44.032;20.900;2022-12-07T06:27:46;3.35;;;2.20;;
50543;SDS011;41176;44.032;20.900;2022-12-07T06:30:11;2.97;;;2.60;;
50543;SDS011;41176;44.032;20.900;2022-12-07T06:32:37;8.10;;;3.25;;
50543;SDS011;41176;44.032;20.900;2022-12-07T06:35:03;5.43;;;2.85;;
50543;SDS011;41176;44.032;20.900;2022-12-07T06:37:29;8.95;;;2.97;;
50543;SDS011;41176;44.032;20.900;2022-12-07T06:39:55;9.27;;;3.80;;
50543;SDS011;41176;44.032;20.900;2022-12-07T06:42:21;8.32;;;3.17;;
50543;SDS011;41176;44.032;20.900;2022-12-07T06:44:47;4.72;;;2.63;;
50543;SDS011;41176;44.032;20.900;2022-12-07T06:47:13;4.85;;;2.72;;
50543;SDS011;41176;44.032;20.900;2022-12-07T06:49:39;10.05;;;3.15;;
50543;SDS011;41176;44.032;20.900;2022-12-07T06:52:05;8.60;;;3.13;;
50543;SDS011;41176;44.032;20.900;2022-12-07T06:54:30;3.15;;;1.45;;
50543;SDS011;41176;44.032;20.900;2022-12-07T06:56:56;3.33;;;1.55;;
50543;SDS011;41176;44.032;20.900;2022-12-07T06:59:22;4.30;;;2.70;;
50543;SDS011;41176;44.032;20.900;2022-12-07T07:01:48;3.30;;;2.05;;
50543;SDS011;41176;44.032;20.900;2022-12-07T07:04:14;9.85;;;2.88;;
50543;SDS011;41176;44.032;20.900;2022-12-07T07:06:40;6.47;;;2.45;;
50543;SDS011;41176;44.032;20.900;2022-12-07T07:09:06;3.17;;;1.10;;
50543;SDS011;41176;44.032;20.900;2022-12-07T07:11:32;4.10;;;1.88;;
50543;SDS011;41176;44.032;20.900;2022-12-07T07:13:58;2.60;;;1.33;;
50543;SDS011;41176;44.032;20.900;2022-12-07T07:16:27;2.20;;;1.40;;
50543;SDS011;41176;44.032;20.900;2022-12-07T07:18:55;2.83;;;2.00;;
50543;SDS011;41176;44.032;20.900;2022-12-07T07:21:21;7.65;;;2.55;;
50543;SDS011;41176;44.032;20.900;2022-12-07T07:23:46;2.85;;;1.55;;
50543;SDS011;41176;44.032;20.900;2022-12-07T07:26:12;3.90;;;2.15;;
50543;SDS011;41176;44.032;20.900;2022-12-07T07:28:38;4.30;;;2.47;;
50543;SDS011;41176;44.032;20.900;2022-12-07T07:31:04;5.88;;;3.08;;
50543;SDS011;41176;44.032;20.900;2022-12-07T07:33:30;2.83;;;1.55;;
50543;SDS011;41176;44.032;20.900;2022-12-07T07:35:56;4.63;;;1.27;;
50543;SDS011;41176;44.032;20.900;2022-12-07T07:38:22;6.00;;;3.15;;
50543;SDS011;41176;44.032;20.900;2022-12-07T07:40:48;5.80;;;2.72;;
50543;SDS011;41176;44.032;20.900;2022-12-07T07:43:14;3.28;;;2.22;;
50543;SDS011;41176;44.032;20.900;2022-12-07T07:45:40;8.48;;;3.50;;
50543;SDS011;41176;44.032;20.900;2022-12-07T07:48:06;5.93;;;2.15;;
50543;SDS011;41176;44.032;20.900;2022-12-07T07:50:31;3.65;;;1.95;;
50543;SDS011;41176;44.032;20.900;2022-12-07T07:52:57;5.22;;;3.15;;
50543;SDS011;41176;44.032;20.900;2022-12-07T07:55:23;3.72;;;2.42;;
50543;SDS011;41176;44.032;20.900;2022-12-07T07:57:49;6.53;;;2.97;;
50543;SDS011;41176;44.032;20.900;2022-12-07T08:00:15;5.60;;;2.60;;
50543;SDS011;41176;44.032;20.900;2022-12-07T08:02:42;5.72;;;2.55;;
50543;SDS011;41176;44.032;20.900;2022-12-07T08:05:08;2.50;;;1.98;;
50543;SDS011;41176;44.032;20.900;2022-12-07T08:07:38;3.05;;;2.40;;
50543;SDS011;41176;44.032;20.900;2022-12-07T08:10:04;5.20;;;1.35;;
50543;SDS011;41176;44.032;20.900;2022-12-07T08:12:31;3.35;;;2.08;;
50543;SDS011;41176;44.032;20.900;2022-12-07T08:15:02;4.15;;;2.58;;
50543;SDS011;41176;44.032;20.900;2022-12-07T08:17:29;4.82;;;2.05;;
50543;SDS011;41176;44.032;20.900;2022-12-07T08:19:54;7.38;;;3.95;;
50543;SDS011;41176;44.032;20.900;2022-12-07T08:22:21;7.30;;;3.10;;
50543;SDS011;41176;44.032;20.900;2022-12-07T08:24:47;5.97;;;3.67;;
50543;SDS011;41176;44.032;20.900;2022-12-07T08:27:13;6.90;;;3.72;;
50543;SDS011;41176;44.032;20.900;2022-12-07T08:29:39;9.57;;;2.63;;
50543;SDS011;41176;44.032;20.900;2022-12-07T08:32:05;9.32;;;3.55;;
50543;SDS011;41176;44.032;20.900;2022-12-07T08:34:31;4.97;;;1.80;;
50543;SDS011;41176;44.032;20.900;2022-12-07T08:36:56;3.33;;;1.73;;
50543;SDS011;41176;44.032;20.900;2022-12-07T08:39:22;6.78;;;2.33;;
50543;SDS011;41176;44.032;20.900;2022-12-07T08:41:48;2.55;;;1.48;;
50543;SDS011;41176;44.032;20.900;2022-12-07T08:44:14;2.53;;;1.85;;
50543;SDS011;41176;44.032;20.900;2022-12-07T08:46:41;3.03;;;1.83;;
50543;SDS011;41176;44.032;20.900;2022-12-07T08:49:15;4.75;;;2.53;;
50543;SDS011;41176;44.032;20.900;2022-12-07T08:54:14;4.70;;;1.42;;
50543;SDS011;41176;44.032;20.900;2022-12-07T08:56:43;4.75;;;2.38;;
50543;SDS011;41176;44.032;20.900;2022-12-07T08:59:12;1.98;;;1.58;;
50543;SDS011;41176;44.032;20.900;2022-12-07T09:01:41;11.77;;;3.00;;
50543;SDS011;41176;44.032;20.900;2022-12-07T09:04:07;6.80;;;2.05;;
50543;SDS011;41176;44.032;20.900;2022-12-07T09:06:33;8.00;;;3.63;;
50543;SDS011;41176;44.032;20.900;2022-12-07T09:08:59;12.45;;;8.23;;
50543;SDS011;41176;44.032;20.900;2022-12-07T09:11:27;9.18;;;5.45;;
50543;SDS011;41176;44.032;20.900;2022-12-07T09:13:53;5.38;;;3.70;;
50543;SDS011;41176;44.032;20.900;2022-12-07T09:16:19;8.52;;;3.50;;
50543;SDS011;41176;44.032;20.900;2022-12-07T09:18:44;5.70;;;2.67;;
50543;SDS011;41176;44.032;20.900;2022-12-07T09:21:10;13.10;;;6.10;;
50543;SDS011;41176;44.032;20.900;2022-12-07T09:23:36;7.82;;;5.40;;
50543;SDS011;41176;44.032;20.900;2022-12-07T09:26:03;5.53;;;3.72;;
50543;SDS011;41176;44.032;20.900;2022-12-07T09:28:32;10.43;;;6.63;;
50543;SDS011;41176;44.032;20.900;2022-12-07T09:30:58;13.43;;;7.10;;
50543;SDS011;41176;44.032;20.900;2022-12-07T09:33:24;20.08;;;10.82;;
50543;SDS011;41176;44.032;20.900;2022-12-07T09:35:51;17.80;;;9.75;;
50543;SDS011;41176;44.032;20.900;2022-12-07T09:38:17;9.95;;;7.00;;
50543;SDS011;41176;44.032;20.900;2022-12-07T09:40:44;9.55;;;8.20;;
50543;SDS011;41176;44.032;20.900;2022-12-07T09:43:15;9.18;;;5.72;;
50543;SDS011;41176;44.032;20.900;2022-12-07T09:45:44;6.47;;;3.37;;
50543;SDS011;41176;44.032;20.900;2022-12-07T09:48:29;5.15;;;2.90;;
50543;SDS011;41176;44.032;20.900;2022-12-07T09:50:59;3.85;;;3.08;;
50543;SDS011;41176;44.032;20.900;2022-12-07T09:56:03;4.20;;;3.13;;
50543;SDS011;41176;44.032;20.900;2022-12-07T09:58:29;5.93;;;3.50;;
50543;SDS011;41176;44.032;20.900;2022-12-07T10:03:32;6.18;;;2.97;;
50543;SDS011;41176;44.032;20.900;2022-12-07T10:06:00;4.78;;;2.90;;
50543;SDS011;41176;44.032;20.900;2022-12-07T10:08:26;5.57;;;3.00;;
50543;SDS011;41176;44.032;20.900;2022-12-07T10:10:53;13.10;;;4.78;;
50543;SDS011;41176;44.032;20.900;2022-12-07T10:13:37;3.47;;;2.17;;
50543;SDS011;41176;44.032;20.900;2022-12-07T10:16:05;2.78;;;2.25;;
50543;SDS011;41176;44.032;20.900;2022-12-07T10:18:52;7.72;;;2.97;;
50543;SDS011;41176;44.032;20.900;2022-12-07T10:21:23;7.97;;;2.75;;
50543;SDS011;41176;44.032;20.900;2022-12-07T10:29:02;4.97;;;3.22;;
50543;SDS011;41176;44.032;20.900;2022-12-07T10:31:57;5.47;;;3.72;;
50543;SDS011;41176;44.032;20.900;2022-12-07T10:34:31;8.35;;;2.35;;
50543;SDS011;41176;44.032;20.900;2022-12-07T10:39:54;11.27;;;3.45;;
50543;SDS011;41176;44.032;20.900;2022-12-07T10:42:26;8.40;;;3.30;;
50543;SDS011;41176;44.032;20.900;2022-12-07T11:01:38;4.47;;;2.50;;
50543;SDS011;41176;44.032;20.900;2022-12-07T11:07:26;7.28;;;4.43;;
50543;SDS011;41176;44.032;20.900;2022-12-07T11:18:22;10.02;;;3.00;;
50543;SDS011;41176;44.032;20.900;2022-12-07T11:37:30;3.92;;;2.65;;
50543;SDS011;41176;44.032;20.900;2022-12-07T11:40:04;3.20;;;1.80;;
50543;SDS011;41176;44.032;20.900;2022-12-07T11:42:41;4.10;;;2.30;;
50543;SDS011;41176;44.032;20.900;2022-12-07T11:45:19;2.35;;;1.60;;
50543;SDS011;41176;44.032;20.900;2022-12-07T11:47:54;2.92;;;2.35;;
50543;SDS011;41176;44.032;20.900;2022-12-07T11:58:35;9.45;;;3.13;;
50543;SDS011;41176;44.032;20.900;2022-12-07T12:03:38;8.60;;;5.18;;
50543;SDS011;41176;44.032;20.900;2022-12-07T12:06:09;7.20;;;3.92;;
50543;SDS011;41176;44.032;20.900;2022-12-07T12:08:56;11.10;;;4.80;;
50543;SDS011;41176;44.032;20.900;2022-12-07T12:22:51;6.63;;;4.50;;
50543;SDS011;41176;44.032;20.900;2022-12-07T12:25:21;11.32;;;4.72;;
50543;SDS011;41176;44.032;20.900;2022-12-07T12:27:57;6.35;;;3.40;;
50543;SDS011;41176;44.032;20.900;2022-12-07T12:30:26;5.38;;;2.92;;
50543;SDS011;41176;44.032;20.900;2022-12-07T12:33:26;6.70;;;2.70;;
50543;SDS011;41176;44.032;20.900;2022-12-07T12:38:51;5.25;;;2.88;;
50543;SDS011;41176;44.032;20.900;2022-12-07T12:51:47;5.90;;;3.42;;
50543;SDS011;41176;44.032;20.900;2022-12-07T12:54:20;4.13;;;3.28;;
50543;SDS011;41176;44.032;20.900;2022-12-07T12:59:33;5.57;;;4.00;;
50543;SDS011;41176;44.032;20.900;2022-12-07T13:04:55;6.50;;;3.00;;
50543;SDS011;41176;44.032;20.900;2022-12-07T13:15:34;3.88;;;2.30;;
50543;SDS011;41176;44.032;20.900;2022-12-07T13:18:04;8.82;;;3.13;;
50543;SDS011;41176;44.032;20.900;2022-12-07T13:26:23;5.75;;;2.88;;
50543;SDS011;41176;44.032;20.900;2022-12-07T13:34:29;4.47;;;2.83;;
50543;SDS011;41176;44.032;20.900;2022-12-07T13:36:58;2.50;;;2.30;;
50543;SDS011;41176;44.032;20.900;2022-12-07T13:39:44;7.97;;;2.67;;
50543;SDS011;41176;44.032;20.900;2022-12-07T13:42:19;4.38;;;2.13;;
50543;SDS011;41176;44.032;20.900;2022-12-07T13:47:15;9.98;;;3.70;;
50543;SDS011;41176;44.032;20.900;2022-12-07T13:49:50;5.30;;;3.77;;
50543;SDS011;41176;44.032;20.900;2022-12-07T13:52:19;5.22;;;1.77;;
50543;SDS011;41176;44.032;20.900;2022-12-07T13:54:49;3.40;;;2.35;;
50543;SDS011;41176;44.032;20.900;2022-12-07T13:57:24;4.20;;;2.83;;
50543;SDS011;41176;44.032;20.900;2022-12-07T13:59:51;6.88;;;2.55;;
50543;SDS011;41176;44.032;20.900;2022-12-07T14:02:21;4.22;;;2.85;;
50543;SDS011;41176;44.032;20.900;2022-12-07T14:04:50;4.03;;;3.10;;
50543;SDS011;41176;44.032;20.900;2022-12-07T14:07:26;2.92;;;2.13;;
50543;SDS011;41176;44.032;20.900;2022-12-07T14:10:00;3.35;;;1.95;;
50543;SDS011;41176;44.032;20.900;2022-12-07T14:12:29;6.07;;;2.85;;
50543;SDS011;41176;44.032;20.900;2022-12-07T14:14:56;7.45;;;3.17;;
50543;SDS011;41176;44.032;20.900;2022-12-07T14:17:24;5.35;;;2.80;;
50543;SDS011;41176;44.032;20.900;2022-12-07T14:19:52;1.77;;;1.48;;
50543;SDS011;41176;44.032;20.900;2022-12-07T14:27:38;3.58;;;2.45;;
50543;SDS011;41176;44.032;20.900;2022-12-07T14:30:15;6.75;;;3.47;;
50543;SDS011;41176;44.032;20.900;2022-12-07T14:32:42;6.55;;;2.30;;
50543;SDS011;41176;44.032;20.900;2022-12-07T14:35:14;2.65;;;2.20;;
50543;SDS011;41176;44.032;20.900;2022-12-07T14:37:41;1.92;;;1.33;;
50543;SDS011;41176;44.032;20.900;2022-12-07T14:40:11;6.72;;;2.47;;
50543;SDS011;41176;44.032;20.900;2022-12-07T14:45:18;5.63;;;2.85;;
50543;SDS011;41176;44.032;20.900;2022-12-07T14:47:46;2.38;;;2.17;;
50543;SDS011;41176;44.032;20.900;2022-12-07T14:50:13;5.93;;;3.72;;
50543;SDS011;41176;44.032;20.900;2022-12-07T14:52:40;3.47;;;2.00;;
50543;SDS011;41176;44.032;20.900;2022-12-07T14:55:29;5.63;;;1.92;;
50543;SDS011;41176;44.032;20.900;2022-12-07T14:57:55;4.63;;;2.97;;
50543;SDS011;41176;44.032;20.900;2022-12-07T15:00:22;4.88;;;2.72;;
50543;SDS011;41176;44.032;20.900;2022-12-07T15:02:50;4.75;;;1.60;;
50543;SDS011;41176;44.032;20.900;2022-12-07T15:05:17;4.07;;;3.50;;
50543;SDS011;41176;44.032;20.900;2022-12-07T15:07:43;2.80;;;2.33;;
50543;SDS011;41176;44.032;20.900;2022-12-07T15:10:20;3.38;;;2.35;;
50543;SDS011;41176;44.032;20.900;2022-12-07T15:12:56;2.33;;;1.70;;
50543;SDS011;41176;44.032;20.900;2022-12-07T15:15:46;4.70;;;2.80;;
50543;SDS011;41176;44.032;20.900;2022-12-07T15:18:13;5.90;;;2.63;;
50543;SDS011;41176;44.032;20.900;2022-12-07T15:20:39;4.53;;;2.35;;
50543;SDS011;41176;44.032;20.900;2022-12-07T15:23:05;3.78;;;2.72;;
50543;SDS011;41176;44.032;20.900;2022-12-07T15:25:31;6.97;;;2.85;;
50543;SDS011;41176;44.032;20.900;2022-12-07T15:27:57;12.93;;;2.47;;
50543;SDS011;41176;44.032;20.900;2022-12-07T15:30:22;5.43;;;3.72;;
50543;SDS011;41176;44.032;20.900;2022-12-07T15:32:49;5.65;;;1.95;;
50543;SDS011;41176;44.032;20.900;2022-12-07T15:35:15;4.68;;;3.70;;
50543;SDS011;41176;44.032;20.900;2022-12-07T15:37:41;3.80;;;2.03;;
50543;SDS011;41176;44.032;20.900;2022-12-07T15:40:07;4.43;;;2.45;;
50543;SDS011;41176;44.032;20.900;2022-12-07T15:42:33;6.32;;;2.13;;
50543;SDS011;41176;44.032;20.900;2022-12-07T15:44:59;2.92;;;1.88;;
50543;SDS011;41176;44.032;20.900;2022-12-07T15:47:28;4.47;;;1.95;;
50543;SDS011;41176;44.032;20.900;2022-12-07T15:50:02;3.85;;;2.40;;
50543;SDS011;41176;44.032;20.900;2022-12-07T15:52:29;4.43;;;2.80;;
50543;SDS011;41176;44.032;20.900;2022-12-07T15:54:55;3.90;;;2.28;;
50543;SDS011;41176;44.032;20.900;2022-12-07T15:57:21;3.80;;;2.17;;
50543;SDS011;41176;44.032;20.900;2022-12-07T15:59:47;5.90;;;2.60;;
50543;SDS011;41176;44.032;20.900;2022-12-07T16:02:13;4.90;;;2.80;;
50543;SDS011;41176;44.032;20.900;2022-12-07T16:04:39;3.22;;;1.80;;
50543;SDS011;41176;44.032;20.900;2022-12-07T16:07:05;5.97;;;2.78;;
50543;SDS011;41176;44.032;20.900;2022-12-07T16:09:31;6.57;;;2.72;;
50543;SDS011;41176;44.032;20.900;2022-12-07T16:11:57;4.97;;;3.58;;
50543;SDS011;41176;44.032;20.900;2022-12-07T16:14:22;1.50;;;1.23;;
50543;SDS011;41176;44.032;20.900;2022-12-07T16:16:48;5.25;;;2.83;;
50543;SDS011;41176;44.032;20.900;2022-12-07T16:19:14;5.30;;;2.92;;
50543;SDS011;41176;44.032;20.900;2022-12-07T16:21:40;5.28;;;2.92;;
50543;SDS011;41176;44.032;20.900;2022-12-07T16:24:07;4.10;;;2.70;;
50543;SDS011;41176;44.032;20.900;2022-12-07T16:26:33;6.85;;;2.88;;
50543;SDS011;41176;44.032;20.900;2022-12-07T16:28:59;4.65;;;3.22;;
50543;SDS011;41176;44.032;20.900;2022-12-07T16:31:26;4.03;;;3.00;;
50543;SDS011;41176;44.032;20.900;2022-12-07T16:33:53;3.00;;;2.03;;
50543;SDS011;41176;44.032;20.900;2022-12-07T16:36:21;4.35;;;1.52;;
50543;SDS011;41176;44.032;20.900;2022-12-07T16:38:49;5.60;;;3.13;;
50543;SDS011;41176;44.032;20.900;2022-12-07T16:41:15;4.88;;;2.00;;
50543;SDS011;41176;44.032;20.900;2022-12-07T16:43:41;4.90;;;2.85;;
50543;SDS011;41176;44.032;20.900;2022-12-07T16:46:07;4.78;;;1.95;;
50543;SDS011;41176;44.032;20.900;2022-12-07T16:48:35;4.35;;;2.30;;
50543;SDS011;41176;44.032;20.900;2022-12-07T16:51:02;1.60;;;1.33;;
50543;SDS011;41176;44.032;20.900;2022-12-07T16:53:34;3.53;;;1.83;;
50543;SDS011;41176;44.032;20.900;2022-12-07T16:56:01;3.03;;;1.73;;
50543;SDS011;41176;44.032;20.900;2022-12-07T16:58:27;1.77;;;1.45;;
50543;SDS011;41176;44.032;20.900;2022-12-07T17:00:53;4.63;;;2.25;;
50543;SDS011;41176;44.032;20.900;2022-12-07T17:03:19;2.45;;;1.42;;
50543;SDS011;41176;44.032;20.900;2022-12-07T17:05:45;1.75;;;1.27;;
50543;SDS011;41176;44.032;20.900;2022-12-07T17:08:12;3.97;;;2.45;;
50543;SDS011;41176;44.032;20.900;2022-12-07T17:10:40;5.00;;;2.97;;
50543;SDS011;41176;44.032;20.900;2022-12-07T17:13:07;5.55;;;2.50;;
50543;SDS011;41176;44.032;20.900;2022-12-07T17:16:03;3.15;;;1.65;;
50543;SDS011;41176;44.032;20.900;2022-12-07T17:18:31;4.22;;;1.92;;
50543;SDS011;41176;44.032;20.900;2022-12-07T17:21:02;4.13;;;3.00;;
50543;SDS011;41176;44.032;20.900;2022-12-07T17:23:29;6.70;;;2.92;;
50543;SDS011;41176;44.032;20.900;2022-12-07T17:25:56;5.43;;;2.03;;
50543;SDS011;41176;44.032;20.900;2022-12-07T17:28:28;5.00;;;2.22;;
50543;SDS011;41176;44.032;20.900;2022-12-07T17:30:54;4.95;;;2.67;;